Time;durP1;ratioP1;P1;durP2;ratioP2;P2;SDS_P1;SDS_P2;PMS_P1;PMS_P2;Temp;Humidity;BMP_temperature;BMP_pressure;BME280_temperature;BME280_humidity;BME280_pressure;Samples;Min_cycle;Max_cycle;Signal;HPM_P1;HPM_P2
2021/05/25 00:02:24;;;;;;;2.38;0.93;;;;;;;28.64;23.82;97854.25;5093710;28;20066;-89
2021/05/25 00:04:51;;;;;;;0.90;0.65;;;;;;;29.09;23.41;97876.84;5093579;28;20027;-89
2021/05/25 00:07:17;;;;;;;0.77;0.77;;;;;;;29.38;23.19;97870.72;5094247;28;20090;-90
2021/05/25 00:09:43;;;;;;;1.58;0.70;;;;;;;29.42;22.98;97871.31;5093841;28;20032;-90
2021/05/25 00:12:09;;;;;;;1.50;0.82;;;;;;;29.01;22.92;97877.66;5093782;28;20032;-90
2021/05/25 00:14:35;;;;;;;1.42;0.60;;;;;;;28.97;23.74;97869.31;5094064;28;20040;-90
2021/05/25 00:17:02;;;;;;;1.35;0.80;;;;;;;28.72;23.77;97878.13;5093188;28;20032;-89
2021/05/25 00:19:28;;;;;;;1.48;0.70;;;;;;;28.65;24.42;97872.78;5073549;28;20438;-89
2021/05/25 00:21:54;;;;;;;1.05;0.70;;;;;;;28.37;24.86;97874.00;5073939;28;20365;-89
2021/05/25 00:24:20;;;;;;;2.13;1.00;;;;;;;27.93;25.69;97874.19;5073684;28;20400;-89
2021/05/25 00:26:46;;;;;;;2.33;0.82;;;;;;;28.21;24.99;97879.91;5073407;28;20024;-89
2021/05/25 00:29:12;;;;;;;1.23;0.80;;;;;;;28.73;24.36;97876.84;5073291;28;20029;-89
2021/05/25 00:31:39;;;;;;;1.73;1.02;;;;;;;28.71;24.36;97876.53;5073401;28;20463;-89
2021/05/25 00:34:05;;;;;;;3.28;1.05;;;;;;;28.35;24.77;97887.78;5073026;28;20060;-89
2021/05/25 00:36:31;;;;;;;1.83;0.80;;;;;;;28.24;24.72;97887.47;5073581;28;20029;-89
2021/05/25 00:38:57;;;;;;;1.42;0.77;;;;;;;28.04;24.95;97885.03;5071989;28;20439;-89
2021/05/25 00:41:23;;;;;;;1.40;0.73;;;;;;;28.70;24.11;97889.91;5073262;28;20480;-90
2021/05/25 00:43:49;;;;;;;1.85;0.85;;;;;;;28.97;23.52;97891.94;5073141;28;20024;-89
2021/05/25 00:46:16;;;;;;;1.05;0.95;;;;;;;29.54;23.11;97890.16;5072957;28;20067;-89
2021/05/25 00:48:42;;;;;;;1.10;0.82;;;;;;;28.91;24.12;97885.34;5068219;28;20051;-90
2021/05/25 00:51:08;;;;;;;0.85;0.60;;;;;;;27.91;25.08;97871.00;5069625;28;20135;-90
2021/05/25 00:53:34;;;;;;;1.65;0.88;;;;;;;27.95;25.18;97862.41;5073371;28;20029;-90
2021/05/25 00:56:00;;;;;;;1.45;0.70;;;;;;;28.58;24.05;97865.38;5073082;28;20064;-89
2021/05/25 00:58:28;;;;;;;2.75;0.80;;;;;;;29.18;23.47;97859.09;5073073;28;20025;-89
2021/05/25 01:00:54;;;;;;;0.93;0.75;;;;;;;28.39;24.50;97855.31;5073072;28;20469;-90
2021/05/25 01:03:23;;;;;;;1.20;0.60;;;;;;;27.49;25.84;97836.06;5071657;28;20017;-90
2021/05/25 01:05:49;;;;;;;0.57;0.57;;;;;;;26.94;26.34;97837.75;5072802;28;20032;-89
2021/05/25 01:08:16;;;;;;;1.10;0.90;;;;;;;27.59;25.60;97839.69;5073105;28;20028;-89
2021/05/25 01:10:47;;;;;;;0.88;0.60;;;;;;;27.65;25.61;97847.09;5075150;28;20036;-89
2021/05/25 01:13:22;;;;;;;0.73;0.70;;;;;;;28.26;24.80;97849.03;5076986;28;20039;-90
2021/05/25 01:15:49;;;;;;;0.85;0.80;;;;;;;28.66;24.18;97829.94;5077158;28;20033;-89
2021/05/25 01:18:16;;;;;;;0.95;0.80;;;;;;;28.60;24.46;97823.34;5087152;28;20118;-89
2021/05/25 01:20:46;;;;;;;1.48;0.73;;;;;;;28.46;24.45;97807.00;5096980;28;20101;-89
2021/05/25 01:23:13;;;;;;;1.83;0.60;;;;;;;28.61;24.52;97793.81;5078109;28;20086;-89
2021/05/25 01:25:41;;;;;;;1.02;0.65;;;;;;;28.82;24.34;97788.47;5097317;28;20438;-90
2021/05/25 01:28:10;;;;;;;1.40;0.50;;;;;;;29.12;23.55;97793.13;5096579;28;20540;-89
2021/05/25 01:30:48;;;;;;;0.85;0.50;;;;;;;29.61;23.14;97787.94;5096784;28;20039;-89
2021/05/25 01:33:17;;;;;;;1.55;0.70;;;;;;;29.79;22.78;97789.91;5096234;28;20032;-89
2021/05/25 01:35:43;;;;;;;1.45;0.82;;;;;;;29.40;23.47;97789.78;5076430;28;20512;-90
2021/05/25 01:38:11;;;;;;;2.05;0.98;;;;;;;29.04;23.88;97784.19;5076619;28;20028;-90
2021/05/25 01:40:38;;;;;;;1.13;0.60;;;;;;;28.94;23.87;97788.28;5081236;28;20032;-90
2021/05/25 01:43:05;;;;;;;1.25;0.93;;;;;;;29.16;23.56;97793.75;5096652;28;20076;-90
2021/05/25 01:45:33;;;;;;;1.88;0.73;;;;;;;29.32;23.62;97799.84;5096824;28;20056;-90
2021/05/25 01:48:01;;;;;;;1.58;0.68;;;;;;;29.18;23.71;97789.22;5096422;28;20042;-90
2021/05/25 01:50:29;;;;;;;1.63;0.60;;;;;;;29.15;23.77;97798.59;5096681;28;20040;-90
2021/05/25 01:53:02;;;;;;;2.33;0.73;;;;;;;29.39;23.21;97816.47;5096465;28;20060;-90
2021/05/25 01:55:42;;;;;;;0.95;0.45;;;;;;;29.75;22.69;97815.56;5096717;28;20031;-89
2021/05/25 01:58:09;;;;;;;1.13;0.80;;;;;;;29.68;23.22;97841.38;5095828;28;20442;-89
2021/05/25 02:00:37;;;;;;;1.17;0.93;;;;;;;29.86;22.78;97875.28;5096327;28;20036;-88
2021/05/25 02:03:04;;;;;;;0.73;0.57;;;;;;;29.87;22.99;97862.69;5096169;28;20032;-89
2021/05/25 02:05:32;;;;;;;0.80;0.68;;;;;;;29.67;23.87;97845.44;5096214;28;20028;-88
2021/05/25 02:07:58;;;;;;;1.02;0.93;;;;;;;28.11;26.52;97819.03;5096156;28;20028;-89
2021/05/25 02:10:32;;;;;;;1.55;0.50;;;;;;;26.30;28.78;97818.75;5095928;28;20119;-88
2021/05/25 02:13:05;;;;;;;0.50;0.50;;;;;;;27.01;28.08;97819.78;5095858;28;20036;-87
2021/05/25 02:15:32;;;;;;;1.45;0.50;;;;;;;27.39;26.71;97825.97;5095923;28;20032;-88
2021/05/25 02:18:13;;;;;;;0.60;0.40;;;;;;;27.81;26.40;97863.78;5095742;28;20080;-88
2021/05/25 02:20:42;;;;;;;1.35;0.52;;;;;;;28.39;26.01;97875.09;5096051;28;20038;-87
2021/05/25 02:23:09;;;;;;;0.65;0.50;;;;;;;28.70;25.59;97870.13;5094901;28;20036;-88
2021/05/25 02:25:36;;;;;;;0.95;0.50;;;;;;;28.79;25.25;97868.53;5095567;28;20051;-88
2021/05/25 02:28:04;;;;;;;1.58;0.50;;;;;;;28.71;25.36;97837.78;5096018;28;20035;-88
2021/05/25 02:30:31;;;;;;;0.95;0.63;;;;;;;28.14;26.46;97809.63;5095710;28;20032;-88
2021/05/25 02:32:59;;;;;;;1.85;0.60;;;;;;;27.90;26.78;97813.00;5085304;28;20422;-88
2021/05/25 02:35:26;;;;;;;1.10;0.50;;;;;;;27.80;26.80;97797.31;5075630;28;20024;-88
2021/05/25 02:37:52;;;;;;;0.75;0.60;;;;;;;27.67;27.32;97793.81;5075327;28;20032;-88
2021/05/25 02:40:19;;;;;;;1.17;0.40;;;;;;;28.44;26.31;97817.19;5074968;28;20479;-88
2021/05/25 02:42:45;;;;;;;0.65;0.30;;;;;;;29.24;25.18;97804.25;5075225;28;20473;-88
2021/05/25 02:45:12;;;;;;;0.30;0.30;;;;;;;29.22;25.50;97803.97;5075457;28;20033;-88
2021/05/25 02:47:39;;;;;;;0.70;0.50;;;;;;;29.31;25.18;97820.13;5075524;28;20116;-87
2021/05/25 02:50:07;;;;;;;0.57;0.40;;;;;;;29.37;25.04;97878.41;5092076;28;20036;-87
2021/05/25 02:52:53;;;;;;;1.02;0.43;;;;;;;29.33;25.44;97976.78;5095178;28;20475;-87
2021/05/25 02:55:30;;;;;;;1.63;0.43;;;;;;;29.37;24.98;97985.09;5095022;28;20472;-88
2021/05/25 02:57:58;;;;;;;0.35;0.35;;;;;;;29.31;25.39;97948.16;5095155;28;20032;-89
2021/05/25 03:00:32;;;;;;;0.75;0.40;;;;;;;29.45;24.62;97963.72;5095196;28;20035;-88
2021/05/25 03:02:59;;;;;;;1.45;0.52;;;;;;;29.71;24.63;97973.41;5095437;28;20353;-89
2021/05/25 03:05:25;;;;;;;0.90;0.50;;;;;;;29.64;24.76;97953.94;5094928;28;20028;-89
2021/05/25 03:07:53;;;;;;;0.45;0.40;;;;;;;28.80;25.85;97921.00;5094964;28;20429;-90
2021/05/25 03:10:21;;;;;;;2.40;1.33;;;;;;;27.91;27.35;97918.22;5094652;28;20024;-90
2021/05/25 03:12:48;;;;;;;0.82;0.43;;;;;;;28.31;26.68;97916.16;5095210;28;20024;-89
2021/05/25 03:15:17;;;;;;;0.70;0.47;;;;;;;28.39;26.51;97899.72;5094778;28;20109;-89
2021/05/25 03:17:43;;;;;;;0.40;0.40;;;;;;;27.85;27.59;97895.44;5095085;28;20135;-89
2021/05/25 03:20:13;;;;;;;0.68;0.40;;;;;;;27.88;27.58;97905.03;5094758;28;20122;-89
2021/05/25 03:22:39;;;;;;;0.30;0.30;;;;;;;28.60;26.22;97905.28;5094537;28;20115;-89
2021/05/25 03:25:08;;;;;;;1.08;0.20;;;;;;;29.27;24.88;97918.47;5094504;28;20039;-89
2021/05/25 03:27:35;;;;;;;0.75;0.40;;;;;;;29.62;24.86;97910.38;5094463;28;20028;-89
2021/05/25 03:30:02;;;;;;;0.30;0.22;;;;;;;29.40;25.04;97919.09;5094826;28;20074;-89
2021/05/25 03:32:28;;;;;;;1.05;0.22;;;;;;;29.58;24.45;97907.75;5078275;28;20183;-89
2021/05/25 03:34:54;;;;;;;0.93;0.40;;;;;;;29.67;25.04;97889.94;5074275;28;20119;-89
2021/05/25 03:37:20;;;;;;;0.32;0.32;;;;;;;29.46;25.26;97902.25;5078693;28;20054;-89
2021/05/25 03:39:46;;;;;;;0.60;0.30;;;;;;;29.26;25.24;97906.41;5088429;28;20036;-89
2021/05/25 03:42:12;;;;;;;0.20;0.20;;;;;;;29.48;24.82;97894.88;5094346;28;20024;-89
2021/05/25 03:44:38;;;;;;;2.28;0.28;;;;;;;29.65;24.99;97878.31;5094221;28;20036;-89
2021/05/25 03:47:04;;;;;;;0.45;0.30;;;;;;;29.36;25.50;97856.22;5094258;28;20028;-89
2021/05/25 03:49:30;;;;;;;0.40;0.32;;;;;;;29.34;25.66;97856.72;5094575;28;20044;-89
2021/05/25 03:51:56;;;;;;;0.30;0.30;;;;;;;29.51;25.17;97864.84;5094140;28;20027;-89
2021/05/25 03:54:28;;;;;;;0.20;0.20;;;;;;;29.84;24.86;97860.03;5093927;28;20040;-88
2021/05/25 03:57:02;;;;;;;1.13;0.32;;;;;;;30.00;24.26;97856.81;5093848;28;20111;-89
2021/05/25 03:59:28;;;;;;;1.00;0.30;;;;;;;30.35;23.60;97857.88;5094048;28;20031;-89
2021/05/25 04:01:57;;;;;;;0.20;0.20;;;;;;;30.44;23.99;97857.81;5094246;28;20035;-89
2021/05/25 04:04:23;;;;;;;0.68;0.30;;;;;;;30.25;24.05;97850.69;5093959;28;20094;-89
2021/05/25 04:06:49;;;;;;;0.50;0.30;;;;;;;29.90;24.53;97841.13;5094512;28;20035;-89
2021/05/25 04:09:15;;;;;;;0.55;0.25;;;;;;;29.92;24.77;97838.63;5093519;28;20036;-89
2021/05/25 04:11:41;;;;;;;0.22;0.22;;;;;;;29.95;24.86;97829.16;5093858;28;20111;-89
2021/05/25 04:14:07;;;;;;;0.45;0.45;;;;;;;30.06;24.36;97827.34;5093672;28;20035;-89
2021/05/25 04:16:33;;;;;;;0.47;0.20;;;;;;;30.01;24.86;97824.41;5093701;28;20032;-89
2021/05/25 04:18:59;;;;;;;0.43;0.30;;;;;;;29.82;24.71;97817.28;5093608;28;20063;-89
2021/05/25 04:21:25;;;;;;;0.25;0.20;;;;;;;30.06;24.96;97837.88;5093501;28;20028;-89
2021/05/25 04:23:52;;;;;;;0.38;0.15;;;;;;;29.04;26.31;97849.22;5093476;28;20032;-89
2021/05/25 04:26:18;;;;;;;1.27;0.35;;;;;;;28.16;27.26;97852.28;5093682;28;20032;-89
2021/05/25 04:28:44;;;;;;;0.30;0.28;;;;;;;28.49;26.47;97867.41;5093492;28;20047;-88
2021/05/25 04:31:10;;;;;;;0.60;0.30;;;;;;;27.78;27.54;97858.25;5086771;28;20476;-89
2021/05/25 04:33:36;;;;;;;0.60;0.35;;;;;;;27.90;27.79;97849.69;5093754;28;20066;-89
2021/05/25 04:36:03;;;;;;;0.73;0.65;;;;;;;28.25;27.22;97846.66;5093242;28;20024;-88
2021/05/25 04:38:29;;;;;;;0.20;0.20;;;;;;;27.25;28.05;97835.75;5093824;28;20032;-89
2021/05/25 04:40:55;;;;;;;0.30;0.30;;;;;;;27.00;29.67;97833.09;5093475;28;20028;-89
2021/05/25 04:43:21;;;;;;;0.63;0.32;;;;;;;27.08;29.32;97845.66;5093463;28;20456;-89
2021/05/25 04:45:47;;;;;;;0.55;0.30;;;;;;;27.49;28.37;97855.81;5092794;28;20384;-89
2021/05/25 04:48:13;;;;;;;0.35;0.30;;;;;;;28.12;27.65;97855.28;5093248;28;20442;-89
2021/05/25 04:50:40;;;;;;;0.90;0.38;;;;;;;28.78;26.30;97864.94;5091816;28;20035;-89
2021/05/25 04:53:06;;;;;;;1.85;0.20;;;;;;;29.20;25.63;97851.72;5093683;28;20115;-89
2021/05/25 04:55:33;;;;;;;0.60;0.30;;;;;;;29.55;25.46;97851.31;5093505;28;20150;-89
2021/05/25 04:57:59;;;;;;;0.20;0.20;;;;;;;29.98;24.44;97860.13;5093547;28;20063;-89
2021/05/25 05:00:27;;;;;;;0.88;0.25;;;;;;;30.28;23.89;97851.75;5093336;28;20397;-89
2021/05/25 05:02:54;;;;;;;0.28;0.28;;;;;;;30.26;24.14;97857.91;5093533;28;20028;-89
2021/05/25 05:05:22;;;;;;;0.30;0.30;;;;;;;30.06;24.61;97852.03;5092954;28;20028;-89
2021/05/25 05:07:48;;;;;;;0.32;0.30;;;;;;;29.86;25.12;97857.50;5093241;28;20077;-89
2021/05/25 05:10:16;;;;;;;0.20;0.20;;;;;;;29.94;24.68;97864.41;5093232;28;20119;-90
2021/05/25 05:12:43;;;;;;;0.22;0.22;;;;;;;29.75;24.16;97868.53;5093238;28;20143;-90
2021/05/25 05:15:10;;;;;;;0.15;0.10;;;;;;;29.50;24.72;97858.38;5093347;28;20050;-91
2021/05/25 05:17:37;;;;;;;0.35;0.30;;;;;;;29.31;25.20;97852.00;5093194;28;20048;-91
2021/05/25 05:20:08;;;;;;;0.30;0.30;;;;;;;29.04;26.03;97869.00;5092857;28;20077;-90
2021/05/25 05:22:34;;;;;;;;;;;;;;;28.10;27.89;97866.22;5093020;28;20032;-90
2021/05/25 05:25:00;;;;;;;0.10;0.10;;;;;;;27.01;28.72;97862.84;5093405;28;20295;-90
2021/05/25 05:27:26;;;;;;;0.55;0.20;;;;;;;27.41;28.81;97877.06;5093239;28;20032;-90
2021/05/25 05:29:52;;;;;;;0.75;0.40;;;;;;;27.61;27.90;97874.66;5076612;28;20037;-90
2021/05/25 05:32:18;;;;;;;0.52;0.32;;;;;;;28.17;27.18;97868.75;5072806;28;20542;-90
2021/05/25 05:34:45;;;;;;;0.30;0.10;;;;;;;28.82;26.19;97876.09;5072788;28;20111;-90
2021/05/25 05:37:11;;;;;;;0.20;0.20;;;;;;;29.28;25.78;97875.59;5072753;28;20143;-90
2021/05/25 05:39:37;;;;;;;0.22;0.22;;;;;;;29.40;25.62;97857.66;5086031;28;20028;-90
2021/05/25 05:42:04;;;;;;;0.40;0.40;;;;;;;29.12;25.94;97861.78;5093214;28;20023;-90
2021/05/25 05:44:30;;;;;;;1.75;0.28;;;;;;;28.99;26.26;97860.34;5093170;28;20115;-90
2021/05/25 05:46:56;;;;;;;0.20;0.20;;;;;;;29.24;26.11;97855.16;5092742;28;20036;-90
2021/05/25 05:49:23;;;;;;;0.82;0.30;;;;;;;29.30;25.91;97860.97;5092899;28;20032;-90
2021/05/25 05:51:50;;;;;;;0.45;0.30;;;;;;;29.56;25.41;97861.38;5092942;28;20103;-90
2021/05/25 05:54:17;;;;;;;0.30;0.30;;;;;;;29.68;25.00;97861.19;5092647;28;20028;-90
2021/05/25 05:56:47;;;;;;;0.40;0.30;;;;;;;29.87;24.86;97870.41;5093187;28;20111;-90
2021/05/25 05:59:13;;;;;;;0.75;0.40;;;;;;;30.18;24.67;97876.53;5096409;28;20032;-90
2021/05/25 06:01:40;;;;;;;0.30;0.30;;;;;;;29.94;25.24;97875.72;5096330;28;20028;-91
2021/05/25 06:04:06;;;;;;;1.85;0.40;;;;;;;29.28;26.30;97875.59;5096212;28;20142;-90
2021/05/25 06:06:32;;;;;;;0.88;0.50;;;;;;;29.16;26.34;97876.53;5096185;28;20089;-91
2021/05/25 06:08:58;;;;;;;0.65;0.40;;;;;;;29.37;25.90;97875.56;5096260;28;20030;-91
2021/05/25 06:11:24;;;;;;;0.52;0.40;;;;;;;29.81;24.94;97877.97;5096157;28;20036;-90
2021/05/25 06:13:50;;;;;;;0.30;0.30;;;;;;;30.17;24.58;97880.63;5095957;28;20032;-90
2021/05/25 06:16:16;;;;;;;1.10;0.35;;;;;;;30.30;24.58;97877.56;5094731;28;20046;-90
2021/05/25 06:18:42;;;;;;;0.30;0.30;;;;;;;30.18;25.29;97884.25;5095512;28;20036;-89
2021/05/25 06:21:08;;;;;;;0.20;0.20;;;;;;;30.16;25.31;97876.22;5095853;28;20032;-90
2021/05/25 06:23:35;;;;;;;0.45;0.40;;;;;;;29.94;25.57;97862.31;5095846;28;20032;-90
2021/05/25 06:26:02;;;;;;;0.40;0.32;;;;;;;30.16;24.55;97869.78;5096215;28;20025;-90
2021/05/25 06:28:29;;;;;;;0.73;0.32;;;;;;;30.39;23.98;97861.31;5084836;28;20417;-90
2021/05/25 06:30:56;;;;;;;0.70;0.30;;;;;;;30.70;24.49;97858.09;5091030;28;20403;-90
2021/05/25 06:33:22;;;;;;;0.10;0.10;;;;;;;30.95;24.38;97860.44;5095459;28;20476;-90
2021/05/25 06:35:51;;;;;;;0.30;0.30;;;;;;;31.01;24.23;97857.72;5095630;28;20040;-89
2021/05/25 06:38:18;;;;;;;2.33;0.43;;;;;;;31.05;24.32;97855.44;5095939;28;20028;-90
2021/05/25 06:40:45;;;;;;;0.50;0.50;;;;;;;30.69;24.93;97865.81;5095762;28;20062;-89
2021/05/25 06:43:11;;;;;;;0.22;0.22;;;;;;;30.48;24.90;97872.59;5095516;28;20107;-90
2021/05/25 06:45:37;;;;;;;1.13;0.50;;;;;;;30.54;25.02;97867.03;5095731;28;20032;-90
2021/05/25 06:48:04;;;;;;;2.47;0.73;;;;;;;30.15;25.44;97862.56;5095013;28;20024;-90
2021/05/25 06:50:31;;;;;;;0.77;0.63;;;;;;;30.05;26.31;97848.44;5095314;28;20123;-89
2021/05/25 06:52:57;;;;;;;2.30;0.60;;;;;;;29.87;26.69;97854.19;5093996;28;20399;-90
2021/05/25 06:55:23;;;;;;;0.68;0.60;;;;;;;29.97;26.60;97852.09;5095153;28;20032;-90
2021/05/25 06:57:49;;;;;;;2.47;0.55;;;;;;;29.79;26.82;97844.50;5095227;28;20029;-90
2021/05/25 07:00:16;;;;;;;0.90;0.60;;;;;;;29.32;27.56;97852.78;5095173;28;20036;-90
2021/05/25 07:02:43;;;;;;;1.17;0.82;;;;;;;29.76;27.70;97847.47;5094995;28;20106;-90
2021/05/25 07:05:09;;;;;;;1.00;0.70;;;;;;;30.11;26.55;97848.56;5094937;28;20024;-91
2021/05/25 07:07:36;;;;;;;1.90;0.77;;;;;;;30.30;26.52;97858.50;5094505;28;20099;-90
2021/05/25 07:10:04;;;;;;;1.20;0.80;;;;;;;30.62;25.98;97862.59;5095205;28;20450;-90
2021/05/25 07:12:30;;;;;;;1.42;0.75;;;;;;;30.94;25.11;97864.53;5094994;28;20032;-91
2021/05/25 07:14:56;;;;;;;0.82;0.40;;;;;;;31.19;25.04;97861.16;5094896;28;20021;-90
2021/05/25 07:17:23;;;;;;;3.05;0.50;;;;;;;31.58;24.11;97856.16;5094441;28;20059;-90
2021/05/25 07:19:49;;;;;;;1.45;0.63;;;;;;;31.57;24.14;97860.31;5094781;28;20035;-90
2021/05/25 07:22:16;;;;;;;2.42;1.17;;;;;;;31.80;24.25;97853.72;5090354;28;20480;-91
2021/05/25 07:24:42;;;;;;;1.08;0.50;;;;;;;32.16;24.18;97858.13;5090064;28;20481;-91
2021/05/25 07:27:08;;;;;;;1.20;0.60;;;;;;;32.54;23.21;97857.13;5092438;28;20020;-91
2021/05/25 07:29:34;;;;;;;1.52;0.70;;;;;;;32.75;23.95;97864.38;5094865;28;20024;-92
2021/05/25 07:32:00;;;;;;;3.35;1.33;;;;;;;32.78;22.89;97868.28;5094277;28;20052;-92
2021/05/25 07:34:27;;;;;;;2.55;1.38;;;;;;;32.71;22.63;97878.81;5094526;28;20027;-92
2021/05/25 07:36:53;;;;;;;1.58;0.85;;;;;;;32.85;22.33;97877.16;5094722;28;20498;-93
2021/05/25 07:39:19;;;;;;;2.03;0.80;;;;;;;32.70;22.71;97879.31;5094265;28;20032;-92
2021/05/25 07:41:46;;;;;;;4.03;0.73;;;;;;;32.64;23.30;97887.00;5094430;28;20398;-93
2021/05/25 07:44:12;;;;;;;1.17;0.70;;;;;;;32.83;22.57;97882.59;5094295;28;20107;-93
2021/05/25 07:46:38;;;;;;;1.33;0.60;;;;;;;32.91;22.90;97880.84;5093992;28;20028;-92
2021/05/25 07:49:05;;;;;;;1.27;0.40;;;;;;;32.95;22.48;97883.50;5094481;28;20043;-93
2021/05/25 07:51:32;;;;;;;1.40;0.43;;;;;;;32.90;22.76;97887.84;5094246;28;20034;-93
2021/05/25 07:53:58;;;;;;;0.90;0.43;;;;;;;32.88;22.37;97889.63;5094123;28;20074;-93
2021/05/25 07:56:25;;;;;;;0.55;0.40;;;;;;;32.68;21.70;97887.56;5094208;28;20039;-93
2021/05/25 07:58:53;;;;;;;1.38;0.40;;;;;;;32.34;23.10;97886.31;5094130;28;20495;-94
2021/05/25 08:01:19;;;;;;;0.85;0.50;;;;;;;32.25;23.68;97886.44;5093846;28;20028;-93
2021/05/25 08:03:45;;;;;;;0.80;0.40;;;;;;;32.23;23.04;97896.75;5093903;28;20032;-93
2021/05/25 08:06:12;;;;;;;1.75;0.57;;;;;;;32.30;23.81;97902.75;5094070;28;20369;-93
2021/05/25 08:08:38;;;;;;;0.63;0.35;;;;;;;32.39;23.10;97893.34;5094198;28;20089;-93
2021/05/25 08:11:08;;;;;;;0.75;0.40;;;;;;;32.56;22.99;97902.91;5093686;28;20089;-93
2021/05/25 08:13:34;;;;;;;0.73;0.40;;;;;;;32.73;22.99;97893.31;5093846;28;20031;-92
2021/05/25 08:16:00;;;;;;;0.40;0.30;;;;;;;32.88;22.16;97901.00;5094050;28;20603;-92
2021/05/25 08:21:11;;;;;;;0.60;0.40;;;;;;;32.78;22.20;97899.56;5088077;28;20090;-93
2021/05/25 08:23:38;;;;;;;0.63;0.40;;;;;;;32.84;22.29;97906.88;5073534;28;20039;-93
2021/05/25 08:26:05;;;;;;;0.60;0.60;;;;;;;32.80;22.66;97903.47;5082756;28;20031;-93
2021/05/25 08:28:31;;;;;;;0.40;0.40;;;;;;;32.73;23.13;97910.38;5093252;28;20031;-93
2021/05/25 08:30:57;;;;;;;0.75;0.57;;;;;;;32.01;24.69;97900.00;5093490;28;20032;-92
2021/05/25 08:33:23;;;;;;;1.27;0.70;;;;;;;32.07;24.14;97907.34;5093820;28;20111;-92
2021/05/25 08:35:50;;;;;;;0.52;0.43;;;;;;;32.26;24.22;97912.78;5093548;28;20486;-92
2021/05/25 08:38:20;;;;;;;0.90;0.50;;;;;;;32.35;24.05;97924.81;5093574;28;20076;-93
2021/05/25 08:40:48;;;;;;;0.40;0.40;;;;;;;32.56;23.44;97920.75;5093484;28;20024;-92
2021/05/25 08:43:14;;;;;;;1.13;0.60;;;;;;;32.67;23.18;97918.03;5093215;28;20036;-92
2021/05/25 08:45:41;;;;;;;1.40;0.75;;;;;;;32.81;23.39;97924.97;5093464;28;20024;-93
2021/05/25 08:48:08;;;;;;;0.68;0.50;;;;;;;32.70;23.51;97922.75;5093348;28;20044;-93
2021/05/25 08:50:34;;;;;;;0.70;0.40;;;;;;;32.78;23.35;97931.63;5093574;28;20115;-92
2021/05/25 08:53:02;;;;;;;0.47;0.35;;;;;;;32.86;23.05;97932.75;5093414;28;20032;-94
2021/05/25 08:55:30;;;;;;;0.40;0.40;;;;;;;32.64;23.55;97935.31;5093727;28;20441;-92
2021/05/25 08:57:57;;;;;;;0.60;0.47;;;;;;;32.51;23.70;97941.34;5091791;28;20028;-93
2021/05/25 09:00:25;;;;;;;1.50;0.60;;;;;;;32.59;23.84;97939.66;5093312;28;20028;-93
2021/05/25 09:02:52;;;;;;;1.58;0.50;;;;;;;32.74;23.69;97943.22;5093284;28;20024;-92
2021/05/25 09:05:19;;;;;;;0.57;0.32;;;;;;;32.65;23.59;97948.28;5093275;28;20032;-92
2021/05/25 09:07:47;;;;;;;1.10;0.60;;;;;;;32.45;24.08;97951.03;5093498;28;20056;-91
2021/05/25 09:10:22;;;;;;;0.47;0.40;;;;;;;31.77;24.65;97953.28;5093145;28;20032;-91
2021/05/25 09:12:51;;;;;;;0.47;0.40;;;;;;;31.04;25.13;97956.00;5093096;28;20024;-92
2021/05/25 09:15:34;;;;;;;1.00;0.43;;;;;;;30.94;25.39;97954.50;5093154;28;20032;-92
2021/05/25 09:18:11;;;;;;;0.63;0.40;;;;;;;31.12;25.53;97957.19;5093024;28;20044;-93
2021/05/25 09:20:48;;;;;;;0.75;0.30;;;;;;;31.54;24.98;97963.44;5080825;28;20049;-92
2021/05/25 09:23:18;;;;;;;0.80;0.38;;;;;;;31.50;24.82;97959.25;5073121;28;20024;-93
2021/05/25 09:25:54;;;;;;;0.47;0.40;;;;;;;31.58;25.08;97949.84;5079426;28;20042;-93
2021/05/25 09:28:21;;;;;;;0.20;0.20;;;;;;;31.71;24.75;97952.41;5092785;28;20020;-93
2021/05/25 09:30:48;;;;;;;0.20;0.20;;;;;;;31.53;25.01;97953.34;5093399;28;20059;-93
2021/05/25 09:33:16;;;;;;;0.40;0.30;;;;;;;31.83;25.12;97957.00;5096853;28;20051;-92
2021/05/25 09:35:46;;;;;;;0.50;0.30;;;;;;;31.95;24.52;97956.69;5096822;28;20024;-92
2021/05/25 09:38:21;;;;;;;2.08;0.22;;;;;;;32.44;24.62;97955.19;5096961;28;20029;-93
2021/05/25 09:40:52;;;;;;;0.50;0.20;;;;;;;32.86;24.45;97961.19;5096698;28;20036;-93
2021/05/25 09:43:27;;;;;;;0.20;0.20;;;;;;;33.25;23.53;97959.69;5096981;28;20036;-93
2021/05/25 09:46:06;;;;;;;0.90;0.40;;;;;;;33.29;23.30;97967.97;5096926;28;20036;-92
2021/05/25 09:48:43;;;;;;;0.22;0.17;;;;;;;33.36;22.95;97956.94;5096445;28;20496;-93
2021/05/25 09:51:26;;;;;;;1.63;0.20;;;;;;;33.35;22.88;97974.53;5096496;28;20089;-93
2021/05/25 09:53:52;;;;;;;0.20;0.20;;;;;;;32.93;23.48;97965.72;5096679;28;20047;-93
2021/05/25 09:56:30;;;;;;;1.70;0.30;;;;;;;33.08;23.09;97975.75;5096367;28;20115;-92
2021/05/25 09:58:59;;;;;;;1.40;0.50;;;;;;;32.89;23.64;97968.75;5076232;28;20033;-93
2021/05/25 10:01:38;;;;;;;1.48;0.20;;;;;;;33.04;24.14;97972.34;5076435;28;20040;-92
2021/05/25 10:04:14;;;;;;;0.63;0.30;;;;;;;32.89;23.17;97971.59;5075966;28;20032;-94
2021/05/25 10:06:44;;;;;;;0.20;0.20;;;;;;;32.77;23.50;97969.13;5075198;28;20037;-93
2021/05/25 10:09:10;;;;;;;0.82;0.22;;;;;;;33.10;23.31;97973.19;5075796;28;20036;-93
2021/05/25 10:11:44;;;;;;;1.50;0.30;;;;;;;32.94;23.36;97972.94;5087395;28;20395;-92
2021/05/25 10:14:12;;;;;;;0.35;0.28;;;;;;;32.49;23.74;97960.13;5096169;28;20028;-91
2021/05/25 10:16:41;;;;;;;0.47;0.40;;;;;;;33.05;24.44;97976.00;5095955;28;20035;-93
2021/05/25 10:21:37;;;;;;;0.85;0.60;;;;;;;33.69;23.20;97981.38;5075667;28;20439;-92
2021/05/25 10:24:04;;;;;;;0.57;0.50;;;;;;;33.77;22.19;97966.19;5075416;28;20028;-91
2021/05/25 10:26:31;;;;;;;1.15;0.50;;;;;;;33.56;22.08;97967.53;5088271;28;20032;-91
2021/05/25 10:28:58;;;;;;;2.47;0.60;;;;;;;33.00;23.07;97971.72;5095677;28;20409;-92
2021/05/25 10:31:25;;;;;;;1.27;0.50;;;;;;;33.05;22.57;97967.44;5096105;28;20036;-91
2021/05/25 10:34:11;;;;;;;0.65;0.30;;;;;;;32.74;23.62;97974.50;5096012;28;20028;-92
2021/05/25 10:36:49;;;;;;;0.57;0.32;;;;;;;31.99;24.05;97976.41;5095568;28;20119;-93
2021/05/25 10:39:36;;;;;;;2.33;0.30;;;;;;;31.46;24.39;97975.69;5095282;28;20043;-92
2021/05/25 10:42:17;;;;;;;4.78;0.40;;;;;;;31.42;24.61;97976.66;5095684;28;20074;-92
2021/05/25 10:44:45;;;;;;;;;;;;;;;30.97;25.18;97973.38;5095749;28;20365;-92
2021/05/25 10:52:58;;;;;;;1.88;0.30;;;;;;;30.91;26.01;97978.13;5095878;28;20033;-93
2021/05/25 10:55:34;;;;;;;1.23;0.25;;;;;;;30.37;26.08;97974.34;5095653;28;20044;-94
2021/05/25 10:58:28;;;;;;;0.30;0.30;;;;;;;30.49;26.30;97973.34;5095436;28;20513;-93
2021/05/25 11:00:54;;;;;;;0.88;0.82;;;;;;;30.92;25.27;97976.88;5095465;28;20060;-92
2021/05/25 11:03:21;;;;;;;0.28;0.20;;;;;;;31.02;25.51;97981.19;5095305;28;20032;-93
2021/05/25 11:05:54;;;;;;;1.65;0.35;;;;;;;31.92;24.71;97971.91;5095395;28;20032;-94
2021/05/25 11:08:21;;;;;;;0.95;0.40;;;;;;;31.18;24.56;97984.38;5095131;28;20025;-92
2021/05/25 11:10:50;;;;;;;0.57;0.22;;;;;;;31.86;24.75;97998.59;5094972;28;20060;-94
2021/05/25 11:13:20;;;;;;;3.10;0.35;;;;;;;30.80;25.79;97989.22;5094945;28;20024;-94
2021/05/25 11:16:16;;;;;;;0.40;0.40;;;;;;;30.96;24.99;97986.00;5095344;28;20430;-93
2021/05/25 11:18:59;;;;;;;0.35;0.30;;;;;;;30.64;25.40;97990.44;5093175;28;20052;-93
2021/05/25 11:24:33;;;;;;;0.20;0.20;;;;;;;30.15;26.00;97996.44;5094855;28;20036;-94
2021/05/25 11:27:03;;;;;;;0.95;0.40;;;;;;;30.46;25.76;97999.78;5094493;28;20483;-94
2021/05/25 11:29:33;;;;;;;1.05;0.40;;;;;;;29.47;26.43;97994.38;5094873;28;20123;-95
2021/05/25 11:32:05;;;;;;;1.35;0.40;;;;;;;29.42;26.98;98005.06;5094907;28;20032;-94
2021/05/25 11:34:31;;;;;;;0.90;0.50;;;;;;;29.08;27.32;98013.06;5094879;28;20028;-94
2021/05/25 11:37:01;;;;;;;0.93;0.40;;;;;;;28.71;27.88;98001.66;5094071;28;20115;-95
2021/05/25 11:39:29;;;;;;;1.30;0.60;;;;;;;28.81;28.09;98013.78;5094692;28;20059;-93
2021/05/25 11:41:57;;;;;;;0.82;0.40;;;;;;;28.62;28.01;98017.81;5094429;28;20040;-94
2021/05/25 11:44:32;;;;;;;1.00;0.50;;;;;;;28.93;27.75;98015.69;5094897;28;20086;-93
2021/05/25 11:46:58;;;;;;;1.00;0.32;;;;;;;28.82;28.03;98017.41;5094202;28;20063;-92
2021/05/25 11:49:25;;;;;;;0.90;0.50;;;;;;;28.42;28.91;98021.03;5094886;28;20038;-94
2021/05/25 11:51:51;;;;;;;0.55;0.50;;;;;;;28.96;28.89;98022.44;5094230;28;20028;-92
2021/05/25 11:54:20;;;;;;;1.60;0.63;;;;;;;29.21;27.77;98025.81;5094026;28;20024;-94